sensor_id;sensor_type;location;lat;lon;timestamp;P1;durP1;ratioP1;P2;durP2;ratioP2
2173;SDS011;1093;51.424;11.764;2023-06-26T00:00:43;11.17;;;8.03;;
2173;SDS011;1093;51.424;11.764;2023-06-26T00:03:12;12.03;;;8.77;;
2173;SDS011;1093;51.424;11.764;2023-06-26T00:05:40;12.23;;;8.90;;
2173;SDS011;1093;51.424;11.764;2023-06-26T00:08:08;10.03;;;7.90;;
2173;SDS011;1093;51.424;11.764;2023-06-26T00:10:34;10.93;;;8.87;;
2173;SDS011;1093;51.424;11.764;2023-06-26T00:13:01;10.13;;;8.50;;
2173;SDS011;1093;51.424;11.764;2023-06-26T00:15:28;12.43;;;8.90;;
2173;SDS011;1093;51.424;11.764;2023-06-26T00:17:56;12.03;;;8.87;;
2173;SDS011;1093;51.424;11.764;2023-06-26T00:20:23;10.83;;;8.00;;
2173;SDS011;1093;51.424;11.764;2023-06-26T00:22:50;10.27;;;8.23;;
2173;SDS011;1093;51.424;11.764;2023-06-26T00:25:20;9.40;;;7.87;;
2173;SDS011;1093;51.424;11.764;2023-06-26T00:27:46;10.33;;;7.73;;
2173;SDS011;1093;51.424;11.764;2023-06-26T00:30:13;11.93;;;8.10;;
2173;SDS011;1093;51.424;11.764;2023-06-26T00:32:40;9.57;;;7.63;;
2173;SDS011;1093;51.424;11.764;2023-06-26T00:35:06;11.20;;;8.73;;
2173;SDS011;1093;51.424;11.764;2023-06-26T00:37:33;12.17;;;8.00;;
2173;SDS011;1093;51.424;11.764;2023-06-26T00:40:00;10.40;;;8.10;;
2173;SDS011;1093;51.424;11.764;2023-06-26T00:42:28;9.50;;;8.17;;
2173;SDS011;1093;51.424;11.764;2023-06-26T00:44:55;14.67;;;8.93;;
2173;SDS011;1093;51.424;11.764;2023-06-26T00:47:22;12.27;;;8.90;;
2173;SDS011;1093;51.424;11.764;2023-06-26T00:49:50;9.60;;;8.00;;
2173;SDS011;1093;51.424;11.764;2023-06-26T00:52:17;11.60;;;8.73;;
2173;SDS011;1093;51.424;11.764;2023-06-26T00:54:45;12.07;;;8.80;;
2173;SDS011;1093;51.424;11.764;2023-06-26T00:57:13;12.47;;;9.37;;
2173;SDS011;1093;51.424;11.764;2023-06-26T00:59:41;11.30;;;8.43;;
2173;SDS011;1093;51.424;11.764;2023-06-26T01:02:07;11.60;;;8.80;;
2173;SDS011;1093;51.424;11.764;2023-06-26T01:04:34;13.77;;;8.53;;
2173;SDS011;1093;51.424;11.764;2023-06-26T01:07:02;12.53;;;7.60;;
2173;SDS011;1093;51.424;11.764;2023-06-26T01:09:30;11.70;;;8.30;;
2173;SDS011;1093;51.424;11.764;2023-06-26T01:11:57;9.33;;;7.40;;
2173;SDS011;1093;51.424;11.764;2023-06-26T01:14:24;14.97;;;9.23;;
2173;SDS011;1093;51.424;11.764;2023-06-26T01:16:52;11.90;;;8.30;;
2173;SDS011;1093;51.424;11.764;2023-06-26T01:19:23;15.73;;;9.40;;
2173;SDS011;1093;51.424;11.764;2023-06-26T01:21:51;11.27;;;8.40;;
2173;SDS011;1093;51.424;11.764;2023-06-26T01:24:23;8.77;;;7.70;;
2173;SDS011;1093;51.424;11.764;2023-06-26T01:26:59;15.17;;;9.47;;
2173;SDS011;1093;51.424;11.764;2023-06-26T01:29:28;14.03;;;7.87;;
2173;SDS011;1093;51.424;11.764;2023-06-26T01:31:57;11.00;;;8.30;;
2173;SDS011;1093;51.424;11.764;2023-06-26T01:34:25;11.60;;;9.30;;
2173;SDS011;1093;51.424;11.764;2023-06-26T01:36:53;11.30;;;7.67;;
2173;SDS011;1093;51.424;11.764;2023-06-26T01:39:20;10.33;;;8.03;;
2173;SDS011;1093;51.424;11.764;2023-06-26T01:41:46;11.70;;;9.10;;
2173;SDS011;1093;51.424;11.764;2023-06-26T01:44:17;13.63;;;9.13;;
2173;SDS011;1093;51.424;11.764;2023-06-26T01:46:54;13.77;;;7.87;;
2173;SDS011;1093;51.424;11.764;2023-06-26T01:49:29;11.83;;;7.93;;
2173;SDS011;1093;51.424;11.764;2023-06-26T01:52:03;17.73;;;8.47;;
2173;SDS011;1093;51.424;11.764;2023-06-26T01:54:36;13.87;;;9.00;;
2173;SDS011;1093;51.424;11.764;2023-06-26T01:57:08;13.23;;;8.90;;
2173;SDS011;1093;51.424;11.764;2023-06-26T01:59:37;16.30;;;8.60;;
2173;SDS011;1093;51.424;11.764;2023-06-26T02:02:06;9.27;;;7.90;;
2173;SDS011;1093;51.424;11.764;2023-06-26T02:04:33;18.50;;;8.77;;
2173;SDS011;1093;51.424;11.764;2023-06-26T02:07:00;11.70;;;7.93;;
2173;SDS011;1093;51.424;11.764;2023-06-26T02:09:27;13.63;;;8.07;;
2173;SDS011;1093;51.424;11.764;2023-06-26T02:11:53;11.53;;;8.33;;
2173;SDS011;1093;51.424;11.764;2023-06-26T02:14:20;10.13;;;7.57;;
2173;SDS011;1093;51.424;11.764;2023-06-26T02:16:49;9.90;;;7.77;;
2173;SDS011;1093;51.424;11.764;2023-06-26T02:19:15;13.77;;;7.73;;
2173;SDS011;1093;51.424;11.764;2023-06-26T02:21:46;15.43;;;8.43;;
2173;SDS011;1093;51.424;11.764;2023-06-26T02:24:13;13.23;;;7.63;;
2173;SDS011;1093;51.424;11.764;2023-06-26T02:26:40;15.83;;;9.43;;
2173;SDS011;1093;51.424;11.764;2023-06-26T02:29:07;16.17;;;9.03;;
2173;SDS011;1093;51.424;11.764;2023-06-26T02:31:34;11.33;;;8.30;;
2173;SDS011;1093;51.424;11.764;2023-06-26T02:34:02;11.70;;;8.87;;
2173;SDS011;1093;51.424;11.764;2023-06-26T02:36:29;12.93;;;9.00;;
2173;SDS011;1093;51.424;11.764;2023-06-26T02:38:56;12.93;;;9.77;;
2173;SDS011;1093;51.424;11.764;2023-06-26T02:41:22;12.80;;;8.83;;
2173;SDS011;1093;51.424;11.764;2023-06-26T02:43:49;11.40;;;8.93;;
2173;SDS011;1093;51.424;11.764;2023-06-26T02:46:16;13.83;;;8.97;;
2173;SDS011;1093;51.424;11.764;2023-06-26T02:48:42;13.20;;;9.00;;
2173;SDS011;1093;51.424;11.764;2023-06-26T02:51:10;14.33;;;10.37;;
2173;SDS011;1093;51.424;11.764;2023-06-26T02:53:37;12.87;;;9.57;;
2173;SDS011;1093;51.424;11.764;2023-06-26T02:56:04;14.70;;;8.87;;
2173;SDS011;1093;51.424;11.764;2023-06-26T02:58:31;18.00;;;9.50;;
2173;SDS011;1093;51.424;11.764;2023-06-26T03:00:58;14.57;;;8.90;;
2173;SDS011;1093;51.424;11.764;2023-06-26T03:03:25;22.43;;;9.53;;
2173;SDS011;1093;51.424;11.764;2023-06-26T03:05:51;16.43;;;8.80;;
2173;SDS011;1093;51.424;11.764;2023-06-26T03:08:20;21.07;;;10.23;;
2173;SDS011;1093;51.424;11.764;2023-06-26T03:10:46;16.47;;;9.47;;
2173;SDS011;1093;51.424;11.764;2023-06-26T03:13:13;18.97;;;9.43;;
2173;SDS011;1093;51.424;11.764;2023-06-26T03:15:40;21.40;;;9.93;;
2173;SDS011;1093;51.424;11.764;2023-06-26T03:18:06;20.07;;;10.60;;
2173;SDS011;1093;51.424;11.764;2023-06-26T03:20:34;17.27;;;9.97;;
2173;SDS011;1093;51.424;11.764;2023-06-26T03:23:01;19.00;;;10.23;;
2173;SDS011;1093;51.424;11.764;2023-06-26T03:28:51;22.20;;;10.87;;
2173;SDS011;1093;51.424;11.764;2023-06-26T03:31:18;15.43;;;9.07;;
2173;SDS011;1093;51.424;11.764;2023-06-26T03:33:45;16.83;;;9.57;;
2173;SDS011;1093;51.424;11.764;2023-06-26T03:36:12;20.43;;;11.00;;
2173;SDS011;1093;51.424;11.764;2023-06-26T03:38:38;14.47;;;9.00;;
2173;SDS011;1093;51.424;11.764;2023-06-26T03:41:05;18.57;;;11.37;;
2173;SDS011;1093;51.424;11.764;2023-06-26T03:43:32;22.40;;;11.03;;
2173;SDS011;1093;51.424;11.764;2023-06-26T03:46:00;17.97;;;11.57;;
2173;SDS011;1093;51.424;11.764;2023-06-26T03:48:27;21.97;;;10.80;;
2173;SDS011;1093;51.424;11.764;2023-06-26T03:50:54;16.97;;;11.60;;
2173;SDS011;1093;51.424;11.764;2023-06-26T03:53:20;18.77;;;10.63;;
2173;SDS011;1093;51.424;11.764;2023-06-26T03:55:48;17.93;;;10.20;;
2173;SDS011;1093;51.424;11.764;2023-06-26T03:58:15;16.50;;;9.83;;
2173;SDS011;1093;51.424;11.764;2023-06-26T04:00:42;13.90;;;10.43;;
2173;SDS011;1093;51.424;11.764;2023-06-26T04:03:11;20.40;;;11.73;;
2173;SDS011;1093;51.424;11.764;2023-06-26T04:05:37;17.80;;;11.30;;
2173;SDS011;1093;51.424;11.764;2023-06-26T04:08:04;23.07;;;12.50;;
2173;SDS011;1093;51.424;11.764;2023-06-26T04:10:32;19.80;;;11.33;;
2173;SDS011;1093;51.424;11.764;2023-06-26T04:12:59;21.77;;;11.47;;
2173;SDS011;1093;51.424;11.764;2023-06-26T04:15:26;16.27;;;11.40;;
2173;SDS011;1093;51.424;11.764;2023-06-26T04:17:52;18.90;;;12.70;;
2173;SDS011;1093;51.424;11.764;2023-06-26T04:20:20;19.50;;;11.70;;
2173;SDS011;1093;51.424;11.764;2023-06-26T04:22:47;29.90;;;14.30;;
2173;SDS011;1093;51.424;11.764;2023-06-26T04:25:14;17.90;;;12.20;;
2173;SDS011;1093;51.424;11.764;2023-06-26T04:27:41;14.90;;;10.90;;
2173;SDS011;1093;51.424;11.764;2023-06-26T04:30:08;19.10;;;12.63;;
2173;SDS011;1093;51.424;11.764;2023-06-26T04:32:37;13.60;;;11.47;;
2173;SDS011;1093;51.424;11.764;2023-06-26T04:35:04;17.47;;;12.57;;
2173;SDS011;1093;51.424;11.764;2023-06-26T04:37:32;17.40;;;10.80;;
2173;SDS011;1093;51.424;11.764;2023-06-26T04:39:59;17.87;;;12.57;;
2173;SDS011;1093;51.424;11.764;2023-06-26T04:42:26;17.67;;;12.17;;
2173;SDS011;1093;51.424;11.764;2023-06-26T04:44:52;21.10;;;13.53;;
2173;SDS011;1093;51.424;11.764;2023-06-26T04:47:19;17.67;;;12.17;;
2173;SDS011;1093;51.424;11.764;2023-06-26T04:49:46;17.37;;;13.47;;
2173;SDS011;1093;51.424;11.764;2023-06-26T04:52:13;15.07;;;11.80;;
2173;SDS011;1093;51.424;11.764;2023-06-26T04:54:41;21.93;;;12.23;;
2173;SDS011;1093;51.424;11.764;2023-06-26T04:57:08;16.77;;;12.17;;
2173;SDS011;1093;51.424;11.764;2023-06-26T04:59:37;15.97;;;11.13;;
2173;SDS011;1093;51.424;11.764;2023-06-26T05:02:04;15.03;;;10.80;;
2173;SDS011;1093;51.424;11.764;2023-06-26T05:04:31;20.17;;;15.07;;
2173;SDS011;1093;51.424;11.764;2023-06-26T05:06:58;19.73;;;12.30;;
2173;SDS011;1093;51.424;11.764;2023-06-26T05:09:25;17.57;;;13.27;;
2173;SDS011;1093;51.424;11.764;2023-06-26T05:11:53;19.93;;;14.23;;
2173;SDS011;1093;51.424;11.764;2023-06-26T05:14:20;15.27;;;12.80;;
2173;SDS011;1093;51.424;11.764;2023-06-26T05:16:46;28.10;;;13.00;;
2173;SDS011;1093;51.424;11.764;2023-06-26T05:19:13;18.47;;;11.60;;
2173;SDS011;1093;51.424;11.764;2023-06-26T05:21:40;23.63;;;12.73;;
2173;SDS011;1093;51.424;11.764;2023-06-26T05:24:08;19.23;;;12.60;;
2173;SDS011;1093;51.424;11.764;2023-06-26T05:26:35;12.43;;;10.77;;
2173;SDS011;1093;51.424;11.764;2023-06-26T05:29:04;16.60;;;11.23;;
2173;SDS011;1093;51.424;11.764;2023-06-26T05:31:31;32.97;;;15.97;;
2173;SDS011;1093;51.424;11.764;2023-06-26T05:34:00;18.33;;;11.87;;
2173;SDS011;1093;51.424;11.764;2023-06-26T05:36:29;13.47;;;10.80;;
2173;SDS011;1093;51.424;11.764;2023-06-26T05:38:58;20.83;;;9.97;;
2173;SDS011;1093;51.424;11.764;2023-06-26T05:41:25;16.33;;;10.27;;
2173;SDS011;1093;51.424;11.764;2023-06-26T05:43:52;12.43;;;9.27;;
2173;SDS011;1093;51.424;11.764;2023-06-26T05:46:20;12.93;;;9.83;;
2173;SDS011;1093;51.424;11.764;2023-06-26T05:48:47;12.40;;;9.90;;
2173;SDS011;1093;51.424;11.764;2023-06-26T05:51:14;14.63;;;10.63;;
2173;SDS011;1093;51.424;11.764;2023-06-26T05:53:42;14.53;;;9.03;;
2173;SDS011;1093;51.424;11.764;2023-06-26T05:56:09;9.37;;;8.00;;
2173;SDS011;1093;51.424;11.764;2023-06-26T05:58:37;9.30;;;7.57;;
2173;SDS011;1093;51.424;11.764;2023-06-26T06:01:04;11.27;;;9.07;;
2173;SDS011;1093;51.424;11.764;2023-06-26T06:03:32;13.20;;;8.67;;
2173;SDS011;1093;51.424;11.764;2023-06-26T06:05:59;18.93;;;9.63;;
2173;SDS011;1093;51.424;11.764;2023-06-26T06:08:26;12.83;;;9.53;;
2173;SDS011;1093;51.424;11.764;2023-06-26T06:10:52;12.23;;;8.50;;
2173;SDS011;1093;51.424;11.764;2023-06-26T06:13:19;13.40;;;9.63;;
2173;SDS011;1093;51.424;11.764;2023-06-26T06:15:46;11.00;;;8.80;;
2173;SDS011;1093;51.424;11.764;2023-06-26T06:18:13;12.60;;;9.97;;
2173;SDS011;1093;51.424;11.764;2023-06-26T06:20:41;12.97;;;8.60;;
2173;SDS011;1093;51.424;11.764;2023-06-26T06:23:08;12.17;;;9.27;;
2173;SDS011;1093;51.424;11.764;2023-06-26T06:25:35;12.10;;;9.27;;
2173;SDS011;1093;51.424;11.764;2023-06-26T06:28:03;13.97;;;8.40;;
2173;SDS011;1093;51.424;11.764;2023-06-26T06:30:30;10.73;;;8.23;;
2173;SDS011;1093;51.424;11.764;2023-06-26T06:32:57;11.10;;;8.57;;
2173;SDS011;1093;51.424;11.764;2023-06-26T06:35:24;10.23;;;8.20;;
2173;SDS011;1093;51.424;11.764;2023-06-26T06:37:52;10.03;;;7.20;;
2173;SDS011;1093;51.424;11.764;2023-06-26T06:40:19;9.97;;;7.30;;
2173;SDS011;1093;51.424;11.764;2023-06-26T06:42:47;9.73;;;7.90;;
2173;SDS011;1093;51.424;11.764;2023-06-26T06:45:14;13.23;;;9.20;;
2173;SDS011;1093;51.424;11.764;2023-06-26T06:47:41;11.60;;;8.50;;
2173;SDS011;1093;51.424;11.764;2023-06-26T06:50:08;9.80;;;8.13;;
2173;SDS011;1093;51.424;11.764;2023-06-26T06:52:35;9.37;;;7.90;;
2173;SDS011;1093;51.424;11.764;2023-06-26T06:55:05;9.70;;;8.67;;
2173;SDS011;1093;51.424;11.764;2023-06-26T06:57:33;10.83;;;7.77;;
2173;SDS011;1093;51.424;11.764;2023-06-26T07:00:02;12.23;;;8.17;;
2173;SDS011;1093;51.424;11.764;2023-06-26T07:02:32;8.33;;;7.53;;
2173;SDS011;1093;51.424;11.764;2023-06-26T07:04:59;10.50;;;7.50;;
2173;SDS011;1093;51.424;11.764;2023-06-26T07:07:28;8.63;;;7.27;;
2173;SDS011;1093;51.424;11.764;2023-06-26T07:09:56;9.07;;;7.07;;
2173;SDS011;1093;51.424;11.764;2023-06-26T07:12:25;9.13;;;8.10;;
2173;SDS011;1093;51.424;11.764;2023-06-26T07:14:51;9.73;;;7.57;;
2173;SDS011;1093;51.424;11.764;2023-06-26T07:17:19;7.47;;;6.67;;
2173;SDS011;1093;51.424;11.764;2023-06-26T07:19:46;8.20;;;7.20;;
2173;SDS011;1093;51.424;11.764;2023-06-26T07:22:12;8.10;;;7.30;;
2173;SDS011;1093;51.424;11.764;2023-06-26T07:24:39;8.43;;;7.57;;
2173;SDS011;1093;51.424;11.764;2023-06-26T07:27:06;8.53;;;7.20;;
2173;SDS011;1093;51.424;11.764;2023-06-26T07:32:56;10.87;;;7.80;;
2173;SDS011;1093;51.424;11.764;2023-06-26T07:35:23;8.87;;;7.27;;
2173;SDS011;1093;51.424;11.764;2023-06-26T07:37:52;10.40;;;7.90;;
2173;SDS011;1093;51.424;11.764;2023-06-26T07:40:19;9.90;;;7.87;;
2173;SDS011;1093;51.424;11.764;2023-06-26T07:46:02;8.03;;;7.00;;
2173;SDS011;1093;51.424;11.764;2023-06-26T07:48:30;11.73;;;7.10;;
2173;SDS011;1093;51.424;11.764;2023-06-26T07:50:57;8.40;;;7.60;;
2173;SDS011;1093;51.424;11.764;2023-06-26T07:53:24;9.20;;;7.43;;
2173;SDS011;1093;51.424;11.764;2023-06-26T07:59:01;8.47;;;7.23;;
2173;SDS011;1093;51.424;11.764;2023-06-26T08:01:32;10.30;;;6.90;;
2173;SDS011;1093;51.424;11.764;2023-06-26T08:04:01;8.40;;;7.27;;
2173;SDS011;1093;51.424;11.764;2023-06-26T08:06:28;8.50;;;6.93;;
2173;SDS011;1093;51.424;11.764;2023-06-26T08:08:54;9.47;;;7.60;;
2173;SDS011;1093;51.424;11.764;2023-06-26T08:11:21;9.90;;;6.77;;
2173;SDS011;1093;51.424;11.764;2023-06-26T08:13:48;9.93;;;7.60;;
2173;SDS011;1093;51.424;11.764;2023-06-26T08:16:15;9.17;;;7.80;;
2173;SDS011;1093;51.424;11.764;2023-06-26T08:18:42;8.75;;;7.85;;
2173;SDS011;1093;51.424;11.764;2023-06-26T08:21:10;9.37;;;8.47;;
2173;SDS011;1093;51.424;11.764;2023-06-26T08:23:37;8.70;;;7.80;;
2173;SDS011;1093;51.424;11.764;2023-06-26T08:26:03;8.80;;;7.50;;
2173;SDS011;1093;51.424;11.764;2023-06-26T08:28:31;8.00;;;7.20;;
2173;SDS011;1093;51.424;11.764;2023-06-26T08:30:58;8.13;;;7.33;;
2173;SDS011;1093;51.424;11.764;2023-06-26T08:33:25;7.17;;;6.43;;
2173;SDS011;1093;51.424;11.764;2023-06-26T08:35:52;7.47;;;6.77;;
2173;SDS011;1093;51.424;11.764;2023-06-26T08:38:20;9.90;;;7.80;;
2173;SDS011;1093;51.424;11.764;2023-06-26T08:40:47;10.03;;;7.13;;
2173;SDS011;1093;51.424;11.764;2023-06-26T08:43:14;8.10;;;7.30;;
2173;SDS011;1093;51.424;11.764;2023-06-26T08:45:41;9.20;;;7.30;;
2173;SDS011;1093;51.424;11.764;2023-06-26T08:48:08;9.60;;;7.00;;
2173;SDS011;1093;51.424;11.764;2023-06-26T08:50:35;8.83;;;7.93;;
2173;SDS011;1093;51.424;11.764;2023-06-26T08:53:08;7.83;;;6.80;;
2173;SDS011;1093;51.424;11.764;2023-06-26T08:55:41;8.17;;;6.33;;
2173;SDS011;1093;51.424;11.764;2023-06-26T08:58:09;8.03;;;7.00;;
2173;SDS011;1093;51.424;11.764;2023-06-26T09:00:37;8.10;;;7.30;;
2173;SDS011;1093;51.424;11.764;2023-06-26T09:03:04;8.70;;;7.80;;
2173;SDS011;1093;51.424;11.764;2023-06-26T09:05:32;7.27;;;6.57;;
2173;SDS011;1093;51.424;11.764;2023-06-26T09:08:00;7.53;;;6.57;;
2173;SDS011;1093;51.424;11.764;2023-06-26T09:10:26;9.20;;;7.33;;
2173;SDS011;1093;51.424;11.764;2023-06-26T09:12:56;8.37;;;7.33;;
2173;SDS011;1093;51.424;11.764;2023-06-26T09:15:23;7.37;;;6.63;;
2173;SDS011;1093;51.424;11.764;2023-06-26T09:17:50;8.53;;;7.63;;
2173;SDS011;1093;51.424;11.764;2023-06-26T09:20:23;7.70;;;6.90;;
2173;SDS011;1093;51.424;11.764;2023-06-26T09:22:54;9.80;;;7.53;;
2173;SDS011;1093;51.424;11.764;2023-06-26T09:25:21;7.77;;;6.90;;
2173;SDS011;1093;51.424;11.764;2023-06-26T09:27:48;7.30;;;6.57;;
2173;SDS011;1093;51.424;11.764;2023-06-26T09:30:17;7.30;;;6.20;;
2173;SDS011;1093;51.424;11.764;2023-06-26T09:32:44;7.40;;;6.50;;
2173;SDS011;1093;51.424;11.764;2023-06-26T09:35:11;6.07;;;5.47;;
2173;SDS011;1093;51.424;11.764;2023-06-26T09:37:39;8.70;;;7.20;;
2173;SDS011;1093;51.424;11.764;2023-06-26T09:40:06;8.27;;;6.97;;
2173;SDS011;1093;51.424;11.764;2023-06-26T09:42:34;7.77;;;6.77;;
2173;SDS011;1093;51.424;11.764;2023-06-26T09:45:01;7.30;;;6.47;;
2173;SDS011;1093;51.424;11.764;2023-06-26T09:47:31;11.70;;;7.30;;
2173;SDS011;1093;51.424;11.764;2023-06-26T09:50:00;8.50;;;7.60;;
2173;SDS011;1093;51.424;11.764;2023-06-26T09:52:29;8.07;;;7.27;;
2173;SDS011;1093;51.424;11.764;2023-06-26T09:55:07;11.63;;;6.53;;
2173;SDS011;1093;51.424;11.764;2023-06-26T09:57:34;7.30;;;6.37;;
2173;SDS011;1093;51.424;11.764;2023-06-26T10:00:01;8.30;;;7.40;;
2173;SDS011;1093;51.424;11.764;2023-06-26T10:02:30;13.03;;;6.93;;
2173;SDS011;1093;51.424;11.764;2023-06-26T10:04:58;8.27;;;6.83;;
2173;SDS011;1093;51.424;11.764;2023-06-26T10:07:24;7.80;;;7.00;;
2173;SDS011;1093;51.424;11.764;2023-06-26T10:09:52;9.00;;;7.20;;
2173;SDS011;1093;51.424;11.764;2023-06-26T10:12:28;12.53;;;7.03;;
2173;SDS011;1093;51.424;11.764;2023-06-26T10:14:56;9.00;;;7.87;;
2173;SDS011;1093;51.424;11.764;2023-06-26T10:17:25;8.00;;;7.20;;
2173;SDS011;1093;51.424;11.764;2023-06-26T10:19:57;7.83;;;6.80;;
2173;SDS011;1093;51.424;11.764;2023-06-26T10:22:28;12.73;;;7.07;;
2173;SDS011;1093;51.424;11.764;2023-06-26T10:24:59;8.50;;;7.70;;
2173;SDS011;1093;51.424;11.764;2023-06-26T10:27:30;10.03;;;7.47;;
2173;SDS011;1093;51.424;11.764;2023-06-26T10:30:04;9.43;;;7.73;;
2173;SDS011;1093;51.424;11.764;2023-06-26T10:32:37;9.20;;;7.33;;
2173;SDS011;1093;51.424;11.764;2023-06-26T10:35:06;8.67;;;7.77;;
2173;SDS011;1093;51.424;11.764;2023-06-26T10:37:40;8.27;;;6.93;;
2173;SDS011;1093;51.424;11.764;2023-06-26T10:40:08;8.93;;;7.63;;
2173;SDS011;1093;51.424;11.764;2023-06-26T10:42:36;8.40;;;7.53;;
2173;SDS011;1093;51.424;11.764;2023-06-26T10:45:11;10.10;;;7.40;;
2173;SDS011;1093;51.424;11.764;2023-06-26T10:47:40;8.83;;;6.77;;
2173;SDS011;1093;51.424;11.764;2023-06-26T10:50:22;8.47;;;7.57;;
2173;SDS011;1093;51.424;11.764;2023-06-26T10:53:10;8.33;;;7.00;;
2173;SDS011;1093;51.424;11.764;2023-06-26T10:55:41;8.83;;;6.90;;
2173;SDS011;1093;51.424;11.764;2023-06-26T11:00:54;9.20;;;7.20;;
2173;SDS011;1093;51.424;11.764;2023-06-26T11:03:41;8.73;;;7.63;;
2173;SDS011;1093;51.424;11.764;2023-06-26T11:06:10;7.00;;;6.30;;
2173;SDS011;1093;51.424;11.764;2023-06-26T11:08:45;9.80;;;8.03;;
2173;SDS011;1093;51.424;11.764;2023-06-26T11:11:12;8.90;;;7.37;;
2173;SDS011;1093;51.424;11.764;2023-06-26T11:13:52;9.17;;;7.10;;
2173;SDS011;1093;51.424;11.764;2023-06-26T11:16:34;8.73;;;7.37;;
2173;SDS011;1093;51.424;11.764;2023-06-26T11:19:01;8.50;;;7.60;;
2173;SDS011;1093;51.424;11.764;2023-06-26T11:21:30;7.70;;;7.00;;
2173;SDS011;1093;51.424;11.764;2023-06-26T11:23:57;7.87;;;7.00;;
2173;SDS011;1093;51.424;11.764;2023-06-26T11:26:26;8.27;;;7.40;;
2173;SDS011;1093;51.424;11.764;2023-06-26T11:28:54;8.43;;;7.63;;
2173;SDS011;1093;51.424;11.764;2023-06-26T11:31:25;10.63;;;8.13;;
2173;SDS011;1093;51.424;11.764;2023-06-26T11:33:53;8.40;;;7.50;;
2173;SDS011;1093;51.424;11.764;2023-06-26T11:36:22;9.10;;;7.73;;
2173;SDS011;1093;51.424;11.764;2023-06-26T11:38:54;8.70;;;7.60;;
2173;SDS011;1093;51.424;11.764;2023-06-26T11:41:21;8.43;;;7.57;;
2173;SDS011;1093;51.424;11.764;2023-06-26T11:43:49;7.80;;;7.00;;
2173;SDS011;1093;51.424;11.764;2023-06-26T11:46:18;8.40;;;7.43;;
2173;SDS011;1093;51.424;11.764;2023-06-26T11:48:45;8.70;;;7.73;;
2173;SDS011;1093;51.424;11.764;2023-06-26T11:51:12;8.63;;;7.73;;
2173;SDS011;1093;51.424;11.764;2023-06-26T11:53:40;9.77;;;7.63;;
2173;SDS011;1093;51.424;11.764;2023-06-26T11:56:10;10.90;;;7.50;;
2173;SDS011;1093;51.424;11.764;2023-06-26T12:01:26;8.10;;;7.30;;
2173;SDS011;1093;51.424;11.764;2023-06-26T12:03:57;8.27;;;6.57;;
2173;SDS011;1093;51.424;11.764;2023-06-26T12:06:26;6.93;;;6.30;;
2173;SDS011;1093;51.424;11.764;2023-06-26T12:08:54;9.30;;;7.53;;
2173;SDS011;1093;51.424;11.764;2023-06-26T12:11:23;9.77;;;8.77;;
2173;SDS011;1093;51.424;11.764;2023-06-26T12:13:50;9.20;;;7.17;;
2173;SDS011;1093;51.424;11.764;2023-06-26T12:16:18;8.70;;;7.90;;
2173;SDS011;1093;51.424;11.764;2023-06-26T12:18:45;9.00;;;7.70;;
2173;SDS011;1093;51.424;11.764;2023-06-26T12:23:58;9.53;;;8.50;;
2173;SDS011;1093;51.424;11.764;2023-06-26T12:26:27;8.63;;;7.80;;
2173;SDS011;1093;51.424;11.764;2023-06-26T12:29:01;8.77;;;7.57;;
2173;SDS011;1093;51.424;11.764;2023-06-26T12:31:30;11.63;;;8.03;;
2173;SDS011;1093;51.424;11.764;2023-06-26T12:33:58;8.97;;;7.60;;
2173;SDS011;1093;51.424;11.764;2023-06-26T12:36:25;7.90;;;7.03;;
2173;SDS011;1093;51.424;11.764;2023-06-26T12:38:52;8.60;;;7.70;;
2173;SDS011;1093;51.424;11.764;2023-06-26T12:41:23;7.97;;;7.17;;
2173;SDS011;1093;51.424;11.764;2023-06-26T12:43:56;8.33;;;7.53;;
2173;SDS011;1093;51.424;11.764;2023-06-26T12:46:32;8.90;;;7.47;;
2173;SDS011;1093;51.424;11.764;2023-06-26T12:49:00;9.83;;;7.30;;
2173;SDS011;1093;51.424;11.764;2023-06-26T12:51:28;7.93;;;6.70;;
2173;SDS011;1093;51.424;11.764;2023-06-26T12:53:55;8.10;;;7.10;;
2173;SDS011;1093;51.424;11.764;2023-06-26T12:56:21;13.53;;;7.90;;
2173;SDS011;1093;51.424;11.764;2023-06-26T12:58:48;7.97;;;7.17;;
2173;SDS011;1093;51.424;11.764;2023-06-26T13:01:16;9.13;;;7.70;;
2173;SDS011;1093;51.424;11.764;2023-06-26T13:03:45;8.60;;;6.80;;
2173;SDS011;1093;51.424;11.764;2023-06-26T13:06:12;7.80;;;7.00;;
2173;SDS011;1093;51.424;11.764;2023-06-26T13:08:39;7.60;;;6.90;;
2173;SDS011;1093;51.424;11.764;2023-06-26T13:11:06;17.93;;;8.10;;
2173;SDS011;1093;51.424;11.764;2023-06-26T13:13:33;8.40;;;7.20;;
2173;SDS011;1093;51.424;11.764;2023-06-26T13:16:00;8.33;;;7.27;;
2173;SDS011;1093;51.424;11.764;2023-06-26T13:18:28;8.37;;;7.57;;
2173;SDS011;1093;51.424;11.764;2023-06-26T13:20:55;8.20;;;7.40;;
2173;SDS011;1093;51.424;11.764;2023-06-26T13:23:21;37.73;;;11.43;;
2173;SDS011;1093;51.424;11.764;2023-06-26T13:25:49;39.60;;;12.60;;
2173;SDS011;1093;51.424;11.764;2023-06-26T13:28:16;21.97;;;11.43;;
2173;SDS011;1093;51.424;11.764;2023-06-26T13:30:43;17.40;;;9.73;;
2173;SDS011;1093;51.424;11.764;2023-06-26T13:33:10;11.80;;;10.00;;
2173;SDS011;1093;51.424;11.764;2023-06-26T13:35:38;26.43;;;11.80;;
2173;SDS011;1093;51.424;11.764;2023-06-26T13:38:05;12.50;;;11.17;;
2173;SDS011;1093;51.424;11.764;2023-06-26T13:40:31;13.00;;;10.67;;
2173;SDS011;1093;51.424;11.764;2023-06-26T13:42:58;13.50;;;11.30;;
2173;SDS011;1093;51.424;11.764;2023-06-26T13:45:25;12.87;;;11.50;;
2173;SDS011;1093;51.424;11.764;2023-06-26T13:47:52;14.57;;;10.13;;
2173;SDS011;1093;51.424;11.764;2023-06-26T13:50:19;14.33;;;11.70;;
2173;SDS011;1093;51.424;11.764;2023-06-26T13:52:47;20.70;;;11.80;;
2173;SDS011;1093;51.424;11.764;2023-06-26T13:55:14;13.03;;;11.00;;
2173;SDS011;1093;51.424;11.764;2023-06-26T13:57:41;13.70;;;11.63;;
2173;SDS011;1093;51.424;11.764;2023-06-26T14:00:09;11.83;;;10.60;;
2173;SDS011;1093;51.424;11.764;2023-06-26T14:02:37;18.90;;;11.30;;
2173;SDS011;1093;51.424;11.764;2023-06-26T14:05:04;13.43;;;11.60;;
2173;SDS011;1093;51.424;11.764;2023-06-26T14:07:31;11.83;;;10.50;;
2173;SDS011;1093;51.424;11.764;2023-06-26T14:09:59;14.00;;;10.33;;
2173;SDS011;1093;51.424;11.764;2023-06-26T14:12:26;14.03;;;11.00;;
2173;SDS011;1093;51.424;11.764;2023-06-26T14:14:53;13.97;;;11.17;;
2173;SDS011;1093;51.424;11.764;2023-06-26T14:17:19;15.17;;;11.30;;
2173;SDS011;1093;51.424;11.764;2023-06-26T14:19:49;12.03;;;10.37;;
2173;SDS011;1093;51.424;11.764;2023-06-26T14:22:16;13.20;;;10.47;;
2173;SDS011;1093;51.424;11.764;2023-06-26T14:24:42;12.47;;;10.47;;
2173;SDS011;1093;51.424;11.764;2023-06-26T14:27:11;14.00;;;12.50;;
2173;SDS011;1093;51.424;11.764;2023-06-26T14:29:37;13.63;;;11.07;;
2173;SDS011;1093;51.424;11.764;2023-06-26T14:32:05;11.40;;;9.83;;
2173;SDS011;1093;51.424;11.764;2023-06-26T14:34:32;12.30;;;10.50;;
2173;SDS011;1093;51.424;11.764;2023-06-26T14:36:59;11.00;;;9.10;;
2173;SDS011;1093;51.424;11.764;2023-06-26T14:39:26;12.83;;;10.07;;
2173;SDS011;1093;51.424;11.764;2023-06-26T14:41:52;12.13;;;8.63;;
2173;SDS011;1093;51.424;11.764;2023-06-26T14:44:21;11.50;;;9.63;;
2173;SDS011;1093;51.424;11.764;2023-06-26T14:46:48;12.00;;;9.90;;
2173;SDS011;1093;51.424;11.764;2023-06-26T14:49:14;12.50;;;10.30;;
2173;SDS011;1093;51.424;11.764;2023-06-26T14:51:41;15.07;;;10.43;;
2173;SDS011;1093;51.424;11.764;2023-06-26T14:54:08;13.30;;;10.53;;
2173;SDS011;1093;51.424;11.764;2023-06-26T14:56:35;11.40;;;9.33;;
2173;SDS011;1093;51.424;11.764;2023-06-26T14:59:02;10.23;;;9.07;;
2173;SDS011;1093;51.424;11.764;2023-06-26T15:01:30;12.70;;;9.53;;
2173;SDS011;1093;51.424;11.764;2023-06-26T15:03:57;12.60;;;9.40;;
2173;SDS011;1093;51.424;11.764;2023-06-26T15:06:23;10.47;;;9.40;;
2173;SDS011;1093;51.424;11.764;2023-06-26T15:08:50;10.07;;;8.60;;
2173;SDS011;1093;51.424;11.764;2023-06-26T15:11:17;16.10;;;10.87;;
2173;SDS011;1093;51.424;11.764;2023-06-26T15:13:44;17.20;;;10.47;;
2173;SDS011;1093;51.424;11.764;2023-06-26T15:16:11;12.90;;;10.30;;